createdAt,value
2023-04-03T00:01:22.004Z,99720.41
2023-04-03T00:03:52.869Z,99721.56
2023-04-03T00:06:21.568Z,99713.34
2023-04-03T00:08:49.980Z,99710.00
2023-04-03T00:11:18.734Z,99705.78
2023-04-03T00:13:47.629Z,99706.28
2023-04-03T00:16:16.209Z,99712.59
2023-04-03T00:18:44.838Z,99702.84
2023-04-03T00:21:16.684Z,99709.78
2023-04-03T00:23:45.181Z,99708.81
2023-04-03T00:26:13.651Z,99713.19
2023-04-03T00:28:42.219Z,99711.69
2023-04-03T00:31:10.566Z,99711.22
2023-04-03T00:33:39.140Z,99700.50
2023-04-03T00:36:12.008Z,99711.22
2023-04-03T00:38:41.980Z,99705.84
2023-04-03T00:41:10.520Z,99710.66
2023-04-03T00:43:39.257Z,99707.97
2023-04-03T00:46:07.596Z,99705.63
2023-04-03T00:48:38.716Z,99705.09
2023-04-03T00:51:10.736Z,99698.03
2023-04-03T00:53:45.738Z,99696.00
2023-04-03T00:56:18.349Z,99693.63
2023-04-03T00:58:51.158Z,99689.91
2023-04-03T01:01:23.232Z,99684.56
2023-04-03T01:03:52.363Z,99687.22
2023-04-03T01:06:28.524Z,99683.56
2023-04-03T01:08:58.843Z,99681.00
2023-04-03T01:11:27.880Z,99678.38
2023-04-03T01:13:56.237Z,99677.09
2023-04-03T01:16:24.926Z,99671.84
2023-04-03T01:18:53.355Z,99670.41
2023-04-03T01:22:05.387Z,99666.84
2023-04-03T01:24:37.513Z,99664.81
2023-04-03T01:27:08.263Z,99665.25
2023-04-03T01:29:37.207Z,99668.84
2023-04-03T01:32:07.368Z,99672.31
2023-04-03T01:34:35.725Z,99667.50
2023-04-03T01:37:04.120Z,99670.41
2023-04-03T01:39:32.895Z,99666.06
2023-04-03T01:42:01.625Z,99665.81
2023-04-03T01:44:30.022Z,99672.88
2023-04-03T01:46:58.540Z,99676.00
2023-04-03T01:49:28.638Z,99672.88
2023-04-03T01:51:57.054Z,99686.53
2023-04-03T01:54:25.601Z,99684.59
2023-04-03T01:56:53.991Z,99693.50
2023-04-03T01:59:22.385Z,99695.38
2023-04-03T02:01:50.922Z,99701.69
2023-04-03T02:04:19.371Z,99705.84
2023-04-03T02:06:49.285Z,99703.94
2023-04-03T02:09:17.732Z,99701.94
2023-04-03T02:11:46.169Z,99711.44
2023-04-03T02:14:14.484Z,99715.09
2023-04-03T02:16:42.863Z,99715.28
2023-04-03T02:19:11.291Z,99720.50
2023-04-03T02:21:39.626Z,99715.91
2023-04-03T02:24:10.962Z,99716.72
2023-04-03T02:26:39.318Z,99719.53
2023-04-03T02:29:07.629Z,99705.78
2023-04-03T02:31:36.005Z,99701.56
2023-04-03T02:34:04.385Z,99708.63
2023-04-03T02:36:33.018Z,99708.16
2023-04-03T02:39:01.510Z,99703.75
2023-04-03T02:41:36.044Z,99701.69
2023-04-03T02:44:05.508Z,99705.53
2023-04-03T02:46:34.186Z,99706.00
2023-04-03T02:49:02.708Z,99706.47
2023-04-03T02:51:31.281Z,99707.25
2023-04-03T02:53:59.709Z,99707.75
2023-04-03T02:56:28.292Z,99709.72
2023-04-03T02:58:58.136Z,99711.72
2023-04-03T03:01:28.173Z,99717.78
2023-04-03T03:03:57.058Z,99715.28
2023-04-03T03:06:25.669Z,99718.47
2023-04-03T03:08:54.220Z,99715.53
2023-04-03T03:11:22.583Z,99740.88
2023-04-03T03:13:50.965Z,99727.34
2023-04-03T03:16:21.071Z,99728.31
2023-04-03T03:18:49.591Z,99735.47
2023-04-03T03:21:18.073Z,99734.84
2023-04-03T03:23:46.570Z,99739.06
2023-04-03T03:26:15.336Z,99744.41
2023-04-03T03:28:44.217Z,99745.06
2023-04-03T03:31:13.442Z,99746.34
2023-04-03T03:33:43.399Z,99752.31
2023-04-03T03:36:11.945Z,99751.25
2023-04-03T03:38:40.372Z,99755.19
2023-04-03T03:41:08.672Z,99763.84
2023-04-03T03:43:37.129Z,99755.03
2023-04-03T03:46:06.803Z,99760.88
2023-04-03T03:48:35.080Z,99756.28
2023-04-03T03:51:05.578Z,99764.31
2023-04-03T03:53:33.941Z,99762.59
2023-04-03T03:56:02.463Z,99777.38
2023-04-03T03:58:30.869Z,99766.03
2023-04-03T04:00:59.275Z,99776.09
2023-04-03T04:03:27.611Z,99771.56
2023-04-03T04:05:56.148Z,99776.53
2023-04-03T04:08:26.529Z,99773.72
2023-04-03T04:10:55.229Z,99776.41
2023-04-03T04:13:23.871Z,99777.59
2023-04-03T04:15:52.319Z,99776.63
2023-04-03T04:18:21.302Z,99775.78
2023-04-03T04:20:49.641Z,99771.44
2023-04-03T04:23:19.895Z,99769.81
2023-04-03T04:25:50.405Z,99772.09
2023-04-03T04:28:18.815Z,99773.28
2023-04-03T04:30:47.797Z,99773.69
2023-04-03T04:33:16.169Z,99785.38
2023-04-03T04:35:45.628Z,99792.53
2023-04-03T04:38:14.219Z,99778.91
2023-04-03T04:40:42.625Z,99783.50
2023-04-03T04:43:15.562Z,99782.63
2023-04-03T04:45:44.096Z,99789.38
2023-04-03T04:48:12.762Z,99778.88
2023-04-03T04:50:41.220Z,99769.97
2023-04-03T04:53:09.683Z,99784.50
2023-04-03T04:55:38.287Z,99780.19
2023-04-03T04:58:07.059Z,99789.34
2023-04-03T05:00:36.844Z,99775.03
2023-04-03T05:03:05.453Z,99772.41
2023-04-03T05:05:34.341Z,99783.28
2023-04-03T05:08:02.626Z,99776.34
2023-04-03T05:10:31.184Z,99785.19
2023-04-03T05:12:59.829Z,99784.16
2023-04-03T05:15:28.321Z,99793.50
2023-04-03T05:17:58.245Z,99791.28
2023-04-03T05:20:26.573Z,99785.94
2023-04-03T05:22:55.083Z,99780.91
2023-04-03T05:25:23.536Z,99779.75
2023-04-03T05:27:55.494Z,99780.59
2023-04-03T05:30:24.119Z,99788.22
2023-04-03T05:32:52.651Z,99792.66
2023-04-03T05:35:22.748Z,99787.59
2023-04-03T05:37:51.283Z,99792.38
2023-04-03T05:40:20.033Z,99796.91
2023-04-03T05:42:48.447Z,99800.78
2023-04-03T05:45:16.897Z,99806.94
2023-04-03T05:47:45.296Z,99832.56
2023-04-03T05:50:14.114Z,99818.66
2023-04-03T05:52:48.016Z,99821.19
2023-04-03T05:55:16.634Z,99817.47
2023-04-03T05:57:45.201Z,99838.47
2023-04-03T06:00:16.706Z,99853.50
2023-04-03T06:02:45.781Z,99870.03
2023-04-03T06:05:14.295Z,99867.72
2023-04-03T06:07:44.711Z,99882.06
2023-04-03T06:10:14.673Z,99879.41
2023-04-03T06:12:43.174Z,99874.81
2023-04-03T06:15:12.918Z,99884.00
2023-04-03T06:17:41.231Z,99883.81
2023-04-03T06:20:10.518Z,99894.69
2023-04-03T06:22:39.006Z,99884.44
2023-04-03T06:25:10.473Z,99896.84
2023-04-03T06:27:38.843Z,99901.53
2023-04-03T06:30:08.848Z,99901.31
2023-04-03T06:32:37.221Z,99914.06
2023-04-03T06:35:06.286Z,99915.91
2023-04-03T06:37:35.725Z,99920.19
2023-04-03T06:40:05.368Z,99925.38
2023-04-03T06:42:35.180Z,99933.34
2023-04-03T06:45:03.672Z,99931.38
2023-04-03T06:47:32.056Z,99935.25
2023-04-03T06:50:00.400Z,99944.81
2023-04-03T06:52:28.781Z,99944.13
2023-04-03T06:54:58.770Z,99944.72
2023-04-03T06:57:27.553Z,99957.78
2023-04-03T06:59:57.651Z,99944.56
2023-04-03T07:02:26.270Z,99953.78
2023-04-03T07:04:54.993Z,99955.09
2023-04-03T07:07:23.481Z,99956.00
2023-04-03T07:09:52.271Z,99941.41
2023-04-03T07:12:21.821Z,99931.16
2023-04-03T07:14:50.395Z,99941.41
2023-04-03T07:17:20.284Z,99954.88
2023-04-03T07:19:48.605Z,99945.91
2023-04-03T07:22:17.169Z,99950.38
2023-04-03T07:24:45.624Z,99963.50
2023-04-03T07:27:13.957Z,99954.88
2023-04-03T07:29:42.659Z,99966.25
2023-04-03T07:32:11.188Z,99960.75
2023-04-03T07:34:41.149Z,99964.34
2023-04-03T07:37:10.100Z,99971.28
2023-04-03T07:39:38.411Z,99976.56
2023-04-03T07:42:07.004Z,99982.22
2023-04-03T07:44:36.568Z,99981.69
2023-04-03T07:47:04.949Z,99980.09
2023-04-03T07:49:34.169Z,99987.47
2023-04-03T07:52:04.621Z,99986.63
2023-04-03T07:54:32.943Z,99994.59
2023-04-03T07:57:01.701Z,99998.41
2023-04-03T07:59:30.291Z,99985.69
2023-04-03T08:01:59.670Z,99991.16
2023-04-03T08:04:28.480Z,100002.88
2023-04-03T08:06:56.994Z,100005.84
2023-04-03T08:09:26.852Z,99998.06
2023-04-03T08:11:56.317Z,99999.69
2023-04-03T08:14:24.767Z,100001.00
2023-04-03T08:16:53.201Z,100008.97
2023-04-03T08:19:25.963Z,100010.03
2023-04-03T08:21:55.683Z,100001.53
2023-04-03T08:24:24.191Z,99998.78
2023-04-03T08:26:53.957Z,100004.38
2023-04-03T08:29:23.040Z,100008.03
2023-04-03T08:31:52.038Z,100001.88
2023-04-03T08:34:21.394Z,100004.00
2023-04-03T08:36:49.912Z,99995.25
2023-04-03T08:39:19.307Z,99992.28
2023-04-03T08:41:48.967Z,100001.25
2023-04-03T08:44:26.722Z,100007.19
2023-04-03T08:47:12.151Z,100006.41
2023-04-03T08:49:48.487Z,100004.16
2023-04-03T08:52:21.472Z,100000.53
2023-04-03T08:54:56.392Z,99998.91
2023-04-03T08:57:31.949Z,99997.78
2023-04-03T09:00:05.730Z,100001.94
2023-04-03T09:02:37.397Z,100010.75
2023-04-03T09:05:15.011Z,100013.03
2023-04-03T09:07:50.072Z,100006.84
2023-04-03T09:10:25.719Z,100002.38
2023-04-03T09:13:02.630Z,100009.19
2023-04-03T09:15:38.952Z,100005.19
2023-04-03T09:18:17.962Z,99995.41
2023-04-03T09:20:52.739Z,100000.19
2023-04-03T09:23:27.218Z,100002.28
2023-04-03T09:26:04.863Z,100007.78
2023-04-03T09:28:48.920Z,99999.34
2023-04-03T09:31:26.121Z,100010.16
2023-04-03T09:33:59.394Z,100012.72
2023-04-03T09:36:42.238Z,100006.19
2023-04-03T09:39:15.684Z,100006.97
2023-04-03T09:41:45.253Z,100023.13
2023-04-03T09:44:27.183Z,100023.13
2023-04-03T09:46:57.026Z,100026.00
2023-04-03T09:49:25.821Z,100022.09
2023-04-03T09:51:54.845Z,100017.81
2023-04-03T09:54:37.142Z,100019.56
2023-04-03T09:57:11.352Z,100017.72
2023-04-03T09:59:47.945Z,100025.91
2023-04-03T10:02:40.375Z,100019.19
2023-04-03T10:05:30.817Z,100014.75
2023-04-03T10:08:24.550Z,100015.84
2023-04-03T10:11:12.820Z,100022.59
2023-04-03T10:13:56.253Z,100023.94
2023-04-03T10:16:35.115Z,100022.56
2023-04-03T10:19:24.496Z,100021.50
2023-04-03T10:21:58.545Z,100019.84
2023-04-03T10:24:33.070Z,100024.13
2023-04-03T10:27:10.716Z,100015.13
2023-04-03T10:29:49.446Z,100012.72
2023-04-03T10:32:49.197Z,100007.41
2023-04-03T10:35:29.811Z,100004.19
2023-04-03T10:38:07.492Z,99997.94
2023-04-03T10:40:48.389Z,99996.78
2023-04-03T10:43:24.301Z,99999.66
2023-04-03T10:46:02.576Z,99996.00
2023-04-03T10:48:51.542Z,100001.66
2023-04-03T10:51:28.547Z,99996.78
2023-04-03T10:54:03.254Z,99992.38
2023-04-03T10:56:39.726Z,99994.28
2023-04-03T10:59:25.856Z,99995.28
2023-04-03T11:01:58.322Z,99996.13
2023-04-03T11:04:30.110Z,99996.47
2023-04-03T11:07:04.362Z,99995.16
2023-04-03T11:09:38.634Z,99983.44
2023-04-03T11:12:12.236Z,99989.34
2023-04-03T11:14:41.393Z,99996.94
2023-04-03T11:17:18.923Z,100007.19
2023-04-03T11:19:53.732Z,100000.72
2023-04-03T11:22:29.410Z,99996.13
2023-04-03T11:25:08.743Z,99998.53
2023-04-03T11:27:44.767Z,99995.13
2023-04-03T11:30:22.005Z,99996.69
2023-04-03T11:33:17.425Z,99996.53
2023-04-03T11:35:48.245Z,99984.44
2023-04-03T11:38:27.256Z,99983.94
2023-04-03T11:40:58.093Z,99995.75
2023-04-03T11:43:28.617Z,100005.03
2023-04-03T11:46:02.073Z,99998.84
2023-04-03T11:48:54.340Z,99999.84
2023-04-03T11:51:52.507Z,99994.41
2023-04-03T11:54:48.905Z,99990.78
2023-04-03T11:57:49.726Z,99991.00
2023-04-03T12:00:51.618Z,99984.06
2023-04-03T12:04:00.931Z,99995.13
2023-04-03T12:07:11.334Z,99986.16
2023-04-03T12:10:30.445Z,99990.94
2023-04-03T12:13:03.694Z,99985.50
2023-04-03T12:15:54.911Z,99995.63
2023-04-03T12:19:01.330Z,99987.84
2023-04-03T12:22:23.002Z,99983.50
2023-04-03T12:24:53.211Z,99977.75
2023-04-03T12:27:30.422Z,99982.16
2023-04-03T12:30:14.783Z,99970.03
2023-04-03T12:33:11.968Z,99974.31
2023-04-03T12:35:51.014Z,99965.28
2023-04-03T12:38:50.201Z,99974.97
2023-04-03T12:41:27.988Z,99966.38
2023-04-03T12:44:11.774Z,99968.06
2023-04-03T12:46:44.786Z,99957.88
2023-04-03T12:49:33.529Z,99956.22
2023-04-03T12:52:02.400Z,99952.47
2023-04-03T12:54:37.471Z,99934.19
2023-04-03T12:57:13.296Z,99937.53
2023-04-03T12:59:44.929Z,99950.56
2023-04-03T13:02:24.511Z,99951.22
2023-04-03T13:04:53.732Z,99949.88
2023-04-03T13:07:26.774Z,99952.19
2023-04-03T13:10:00.196Z,99955.50
2023-04-03T13:12:30.173Z,99950.34
2023-04-03T13:15:05.421Z,99959.91
2023-04-03T13:17:35.231Z,99959.03
2023-04-03T13:20:15.870Z,99964.06
2023-04-03T13:22:52.320Z,99961.81
2023-04-03T13:25:24.037Z,99955.25
2023-04-03T13:28:03.147Z,99957.75
2023-04-03T13:30:42.157Z,99963.75
2023-04-03T13:33:23.206Z,99956.84
2023-04-03T13:35:59.272Z,99961.22
2023-04-03T13:38:32.468Z,99963.28
2023-04-03T13:41:03.785Z,99958.38
2023-04-03T13:43:34.070Z,99968.63
2023-04-03T13:46:08.552Z,99964.34
2023-04-03T13:48:43.090Z,99961.53
2023-04-03T13:51:23.250Z,99966.25
2023-04-03T13:53:55.430Z,99962.94
2023-04-03T13:56:32.148Z,99976.63
2023-04-03T13:59:08.230Z,99972.00
2023-04-03T14:01:46.198Z,99983.03
2023-04-03T14:04:19.484Z,99983.38
2023-04-03T14:06:48.473Z,99987.06
2023-04-03T14:09:18.489Z,99985.69
2023-04-03T14:11:47.540Z,99997.97
2023-04-03T14:14:19.009Z,99990.69
2023-04-03T14:16:53.638Z,99984.56
2023-04-03T14:19:25.231Z,99993.81
2023-04-03T14:21:54.963Z,99987.06
2023-04-03T14:24:24.292Z,99993.38
2023-04-03T14:26:54.230Z,99993.41
2023-04-03T14:29:23.585Z,100003.88
2023-04-03T14:32:03.669Z,99994.56
2023-04-03T14:34:40.307Z,100002.31
2023-04-03T14:37:13.481Z,100001.56
2023-04-03T14:39:42.535Z,100000.94
2023-04-03T14:42:15.129Z,99998.22
2023-04-03T14:44:43.748Z,99995.97
2023-04-03T14:47:29.622Z,100008.31
2023-04-03T14:49:59.789Z,100001.47
2023-04-03T14:52:30.749Z,100003.34
2023-04-03T14:54:59.831Z,100000.69
2023-04-03T14:57:30.524Z,99994.09
2023-04-03T14:59:59.333Z,99982.28
2023-04-03T15:02:31.780Z,99988.81
2023-04-03T15:05:01.930Z,99982.06
2023-04-03T15:07:32.630Z,99981.47
2023-04-03T15:10:02.630Z,99978.22
2023-04-03T15:12:31.033Z,99977.13
2023-04-03T15:15:02.060Z,99978.22
2023-04-03T15:17:59.089Z,99991.13
2023-04-03T15:20:31.690Z,99973.16
2023-04-03T15:23:02.236Z,99981.34
2023-04-03T15:25:30.889Z,99978.81
2023-04-03T15:28:00.094Z,99985.75
2023-04-03T15:30:28.626Z,99972.25
2023-04-03T15:32:59.703Z,99977.91
2023-04-03T15:35:28.154Z,99976.66
2023-04-03T15:37:56.533Z,99981.03
2023-04-03T15:40:25.691Z,99969.19
2023-04-03T15:42:54.553Z,99978.66
2023-04-03T15:45:23.449Z,99976.00
2023-04-03T15:47:52.100Z,99973.13
2023-04-03T15:50:24.262Z,99973.75
2023-04-03T15:52:55.508Z,99972.09
2023-04-03T15:55:24.842Z,99966.22
2023-04-03T15:57:54.558Z,99967.66
2023-04-03T16:00:24.705Z,99961.25
2023-04-03T16:02:55.666Z,99962.00
2023-04-03T16:05:26.623Z,99951.66
2023-04-03T16:07:56.353Z,99953.81
2023-04-03T16:10:25.048Z,99951.00
2023-04-03T16:12:53.705Z,99944.53
2023-04-03T16:15:22.438Z,99943.28
2023-04-03T16:17:51.302Z,99941.44
2023-04-03T16:20:22.639Z,99939.56
2023-04-03T16:22:52.877Z,99937.84
2023-04-03T16:25:22.240Z,99938.47
2023-04-03T16:27:51.445Z,99941.66
2023-04-03T16:30:20.235Z,99954.25
2023-04-03T16:32:49.213Z,99962.13
2023-04-03T16:35:17.810Z,99975.19
2023-04-03T16:37:46.283Z,99974.25
2023-04-03T16:40:16.810Z,99987.38
2023-04-03T16:42:45.320Z,99994.16
2023-04-03T16:45:13.801Z,100002.81
2023-04-03T16:47:42.571Z,100009.88
2023-04-03T16:50:12.437Z,100010.81
2023-04-03T16:52:40.989Z,100013.50
2023-04-03T16:55:10.538Z,100007.94
2023-04-03T16:57:41.219Z,100004.19
2023-04-03T17:00:11.085Z,100000.53
2023-04-03T17:02:39.579Z,99985.72
2023-04-03T17:05:08.874Z,99985.56
2023-04-03T17:07:37.299Z,99995.31
2023-04-03T17:10:06.394Z,99990.28
2023-04-03T17:12:35.370Z,99988.69
2023-04-03T17:15:05.794Z,99982.25
2023-04-03T17:17:34.263Z,99970.88
2023-04-03T17:20:03.477Z,99967.28
2023-04-03T17:22:33.205Z,99958.31
2023-04-03T17:25:01.708Z,99953.09
2023-04-03T17:27:30.074Z,99941.59
2023-04-03T17:29:58.752Z,99934.97
2023-04-03T17:32:28.586Z,99931.03
2023-04-03T17:34:57.428Z,99924.44
2023-04-03T17:37:26.147Z,99920.78
2023-04-03T17:39:54.756Z,99937.78
2023-04-03T17:42:23.311Z,99922.50
2023-04-03T17:44:52.086Z,99929.44
2023-04-03T17:47:20.570Z,99903.56
2023-04-03T17:49:51.640Z,99918.66
2023-04-03T17:52:20.205Z,99925.25
2023-04-03T17:54:48.682Z,99939.22
2023-04-03T17:57:17.202Z,99946.94
2023-04-03T17:59:45.597Z,99939.53
2023-04-03T18:02:14.066Z,99942.19
2023-04-03T18:04:42.397Z,99927.28
2023-04-03T18:07:12.365Z,99936.84
2023-04-03T18:09:42.253Z,99948.13
2023-04-03T18:12:11.437Z,99971.88
2023-04-03T18:14:41.914Z,99981.13
2023-04-03T18:17:11.135Z,99995.63
2023-04-03T18:19:39.685Z,99997.69
2023-04-03T18:22:14.301Z,100009.53
2023-04-03T18:24:44.157Z,100006.63
2023-04-03T18:27:16.192Z,99994.09
2023-04-03T18:29:47.674Z,99981.66
2023-04-03T18:32:19.311Z,99973.44
2023-04-03T18:34:49.445Z,99976.84
2023-04-03T18:37:21.047Z,99960.44
2023-04-03T18:39:49.686Z,99933.34
2023-04-03T18:42:21.496Z,99899.53
2023-04-03T18:44:52.748Z,99914.28
2023-04-03T18:47:21.231Z,99897.66
2023-04-03T18:49:50.009Z,99895.78
2023-04-03T18:52:20.624Z,99876.91
2023-04-03T18:54:49.120Z,99861.19
2023-04-03T18:57:17.704Z,99867.59
2023-04-03T18:59:46.514Z,99861.66
2023-04-03T19:02:16.840Z,99894.84
2023-04-03T19:04:46.818Z,99875.25
2023-04-03T19:07:15.849Z,99877.94
2023-04-03T19:09:45.784Z,99873.38
2023-04-03T19:12:14.174Z,99863.78
2023-04-03T19:14:42.886Z,99893.03
2023-04-03T19:17:11.414Z,99885.22
2023-04-03T19:19:39.968Z,99883.03
2023-04-03T19:22:08.627Z,99884.78
2023-04-03T19:24:37.394Z,99885.75
2023-04-03T19:27:07.621Z,99935.41
2023-04-03T19:29:36.155Z,99962.34
2023-04-03T19:32:04.539Z,99997.88
2023-04-03T19:34:33.044Z,99988.81
2023-04-03T19:37:02.569Z,99971.81
2023-04-03T19:39:35.262Z,99947.69
2023-04-03T19:42:04.890Z,99932.50
2023-04-03T19:44:37.565Z,99923.06
2023-04-03T19:47:07.079Z,99909.72
2023-04-03T19:49:35.455Z,99918.19
2023-04-03T19:52:03.912Z,99908.88
2023-04-03T19:54:32.277Z,99903.72
2023-04-03T19:57:00.601Z,99867.44
2023-04-03T19:59:29.244Z,99867.59
2023-04-03T20:01:59.965Z,99871.66
2023-04-03T20:04:28.432Z,99869.50
2023-04-03T20:06:57.190Z,99868.06
2023-04-03T20:09:27.321Z,99861.97
2023-04-03T20:11:56.792Z,99870.44
2023-04-03T20:14:25.153Z,99839.19
2023-04-03T20:16:53.582Z,99849.69
2023-04-03T20:19:28.858Z,99843.88
2023-04-03T20:21:58.618Z,99865.34
2023-04-03T20:24:28.948Z,99887.81
2023-04-03T20:26:58.011Z,99849.94
2023-04-03T20:29:27.508Z,99857.47
2023-04-03T20:31:56.157Z,99857.47
2023-04-03T20:34:26.836Z,99834.34
2023-04-03T20:36:55.618Z,99849.75
2023-04-03T20:39:24.338Z,99845.69
2023-04-03T20:41:52.924Z,99836.09
2023-04-03T20:44:21.914Z,99850.53
2023-04-03T20:46:53.352Z,99850.53
2023-04-03T20:49:23.368Z,99857.47
2023-04-03T20:51:54.267Z,99851.16
2023-04-03T20:54:22.610Z,99857.31
2023-04-03T20:56:51.551Z,99854.56
2023-04-03T20:59:20.627Z,99855.94
2023-04-03T21:01:49.178Z,99868.81
2023-04-03T21:04:21.655Z,99865.06
2023-04-03T21:07:27.588Z,99855.94
2023-04-03T21:10:32.960Z,99874.16
2023-04-03T21:13:38.198Z,99851.41
2023-04-03T21:16:06.153Z,99871.97
2023-04-03T21:18:55.571Z,99850.81
2023-04-03T21:21:26.246Z,99847.84
2023-04-03T21:23:55.846Z,99854.56
2023-04-03T21:26:28.053Z,99855.03
2023-04-03T21:28:57.196Z,99846.94
2023-04-03T21:31:26.351Z,99856.63
2023-04-03T21:33:56.530Z,99847.03
2023-04-03T21:36:26.810Z,99852.38
2023-04-03T21:39:00.744Z,99845.28
2023-04-03T21:41:33.136Z,99855.16
2023-04-03T21:44:04.784Z,99854.19
2023-04-03T21:46:38.047Z,99849.75
2023-04-03T21:49:10.718Z,99860.31
2023-04-03T21:51:42.792Z,99859.84
2023-04-03T21:54:15.941Z,99861.28
2023-04-03T21:56:45.847Z,99901.47
2023-04-03T21:59:16.902Z,99864.69
2023-04-03T22:01:52.025Z,99844.91
2023-04-03T22:04:26.363Z,99850.84
2023-04-03T22:06:58.045Z,99846.13
2023-04-03T22:09:28.478Z,99835.44
2023-04-03T22:11:57.726Z,99824.75
2023-04-03T22:14:27.029Z,99832.28
2023-04-03T22:16:57.572Z,99819.41
2023-04-03T22:19:29.358Z,99825.38
2023-04-03T22:22:00.377Z,99813.31
2023-04-03T22:24:29.056Z,99807.97
2023-04-03T22:26:59.127Z,99800.25
2023-04-03T22:29:30.072Z,99807.97
2023-04-03T22:32:00.281Z,99839.53
2023-04-03T22:34:31.598Z,99812.03
2023-04-03T22:37:01.841Z,99848.31
2023-04-03T22:39:31.065Z,99805.13
2023-04-03T22:42:02.012Z,99812.31
2023-04-03T22:44:36.495Z,99803.72
2023-04-03T22:47:06.647Z,99812.69
2023-04-03T22:49:38.700Z,99797.03
2023-04-03T22:52:08.817Z,99802.78
2023-04-03T22:54:38.591Z,99813.47
2023-04-03T22:57:07.818Z,99832.16
2023-04-03T22:59:36.947Z,99810.50
2023-04-03T23:02:06.603Z,99788.06
2023-04-03T23:04:41.375Z,99806.13
2023-04-03T23:07:10.180Z,99783.63
2023-04-03T23:09:38.867Z,99796.69
2023-04-03T23:12:10.736Z,99796.69
2023-04-03T23:14:39.890Z,99792.41
2023-04-03T23:17:08.948Z,99802.94
2023-04-03T23:19:41.934Z,99802.63
2023-04-03T23:22:15.232Z,99790.88
2023-04-03T23:24:45.821Z,99811.41
2023-04-03T23:27:16.760Z,99803.41
2023-04-03T23:29:50.288Z,99810.16
2023-04-03T23:32:21.753Z,99797.75
2023-04-03T23:34:53.244Z,99800.44
2023-04-03T23:37:25.089Z,99794.16
2023-04-03T23:39:55.118Z,99792.94
2023-04-03T23:42:26.576Z,99786.91
2023-04-03T23:44:58.875Z,99770.59
2023-04-03T23:47:28.866Z,99777.53
2023-04-03T23:49:58.642Z,99792.56
2023-04-03T23:52:26.946Z,99782.34
2023-04-03T23:54:55.286Z,99800.88
2023-04-03T23:57:23.769Z,99765.25
2023-04-03T23:59:52.254Z,99757.84
